sensor_id;sensor_type;location;lat;lon;timestamp;temperature;humidity
13052;DHT22;6592;47.484;9.726;2023-04-24T00:00:39;10.20;99.90
13052;DHT22;6592;47.484;9.726;2023-04-24T00:03:08;10.20;99.90
13052;DHT22;6592;47.484;9.726;2023-04-24T00:05:36;10.20;99.90
13052;DHT22;6592;47.484;9.726;2023-04-24T00:08:07;10.10;99.90
13052;DHT22;6592;47.484;9.726;2023-04-24T00:10:35;10.10;99.90
13052;DHT22;6592;47.484;9.726;2023-04-24T00:13:04;10.20;99.90
13052;DHT22;6592;47.484;9.726;2023-04-24T00:15:33;10.20;99.90
13052;DHT22;6592;47.484;9.726;2023-04-24T00:18:01;10.20;99.90
13052;DHT22;6592;47.484;9.726;2023-04-24T00:20:29;10.20;99.90
13052;DHT22;6592;47.484;9.726;2023-04-24T00:22:59;10.20;99.90
13052;DHT22;6592;47.484;9.726;2023-04-24T00:25:27;10.30;99.90
13052;DHT22;6592;47.484;9.726;2023-04-24T00:27:55;10.30;99.90
13052;DHT22;6592;47.484;9.726;2023-04-24T00:30:25;10.30;99.90
13052;DHT22;6592;47.484;9.726;2023-04-24T00:32:53;10.40;99.90
13052;DHT22;6592;47.484;9.726;2023-04-24T00:35:22;10.40;99.90
13052;DHT22;6592;47.484;9.726;2023-04-24T00:37:50;10.40;99.90
13052;DHT22;6592;47.484;9.726;2023-04-24T00:40:18;10.40;99.90
13052;DHT22;6592;47.484;9.726;2023-04-24T00:42:47;10.30;99.90
13052;DHT22;6592;47.484;9.726;2023-04-24T00:45:15;10.30;99.90
13052;DHT22;6592;47.484;9.726;2023-04-24T00:47:45;10.40;99.90
13052;DHT22;6592;47.484;9.726;2023-04-24T00:50:15;10.50;99.90
13052;DHT22;6592;47.484;9.726;2023-04-24T00:52:44;10.50;99.90
13052;DHT22;6592;47.484;9.726;2023-04-24T00:55:12;10.50;99.90
13052;DHT22;6592;47.484;9.726;2023-04-24T00:57:41;10.50;99.90
13052;DHT22;6592;47.484;9.726;2023-04-24T01:00:10;10.40;99.90
13052;DHT22;6592;47.484;9.726;2023-04-24T01:02:39;10.30;99.90
13052;DHT22;6592;47.484;9.726;2023-04-24T01:05:13;10.30;99.90
13052;DHT22;6592;47.484;9.726;2023-04-24T01:07:43;10.20;99.90
13052;DHT22;6592;47.484;9.726;2023-04-24T01:10:14;10.20;99.90
13052;DHT22;6592;47.484;9.726;2023-04-24T01:12:43;10.10;99.90
13052;DHT22;6592;47.484;9.726;2023-04-24T01:15:12;10.10;99.90
13052;DHT22;6592;47.484;9.726;2023-04-24T01:17:40;10.00;99.90
13052;DHT22;6592;47.484;9.726;2023-04-24T01:20:09;10.00;99.90
13052;DHT22;6592;47.484;9.726;2023-04-24T01:22:40;10.00;99.90
13052;DHT22;6592;47.484;9.726;2023-04-24T01:25:08;9.90;99.90
13052;DHT22;6592;47.484;9.726;2023-04-24T01:27:36;9.90;99.90
13052;DHT22;6592;47.484;9.726;2023-04-24T01:30:06;9.80;99.90
13052;DHT22;6592;47.484;9.726;2023-04-24T01:32:35;9.90;99.90
13052;DHT22;6592;47.484;9.726;2023-04-24T01:35:05;9.80;99.90
13052;DHT22;6592;47.484;9.726;2023-04-24T01:37:34;9.80;99.90
13052;DHT22;6592;47.484;9.726;2023-04-24T01:40:07;9.80;99.90
13052;DHT22;6592;47.484;9.726;2023-04-24T01:42:35;9.80;99.90
13052;DHT22;6592;47.484;9.726;2023-04-24T01:45:05;9.70;99.90
13052;DHT22;6592;47.484;9.726;2023-04-24T01:47:33;9.70;99.90
13052;DHT22;6592;47.484;9.726;2023-04-24T01:50:02;9.70;99.90
13052;DHT22;6592;47.484;9.726;2023-04-24T01:52:30;9.70;99.90
13052;DHT22;6592;47.484;9.726;2023-04-24T01:55:01;9.70;99.90
13052;DHT22;6592;47.484;9.726;2023-04-24T01:57:32;9.70;99.90
13052;DHT22;6592;47.484;9.726;2023-04-24T02:00:01;9.70;99.90
13052;DHT22;6592;47.484;9.726;2023-04-24T02:02:31;9.60;99.90
13052;DHT22;6592;47.484;9.726;2023-04-24T02:04:59;9.60;99.90
13052;DHT22;6592;47.484;9.726;2023-04-24T02:07:28;9.60;99.90
13052;DHT22;6592;47.484;9.726;2023-04-24T02:09:56;9.60;99.90
13052;DHT22;6592;47.484;9.726;2023-04-24T02:12:24;9.50;99.90
13052;DHT22;6592;47.484;9.726;2023-04-24T02:14:54;9.60;99.90
13052;DHT22;6592;47.484;9.726;2023-04-24T02:17:22;9.50;99.90
13052;DHT22;6592;47.484;9.726;2023-04-24T02:19:50;9.50;99.90
13052;DHT22;6592;47.484;9.726;2023-04-24T02:22:18;9.50;99.90
13052;DHT22;6592;47.484;9.726;2023-04-24T02:24:46;9.50;99.90
13052;DHT22;6592;47.484;9.726;2023-04-24T02:27:15;9.50;99.90
13052;DHT22;6592;47.484;9.726;2023-04-24T02:29:43;9.50;99.90
13052;DHT22;6592;47.484;9.726;2023-04-24T02:32:13;9.50;99.90
13052;DHT22;6592;47.484;9.726;2023-04-24T02:34:42;9.50;99.90
13052;DHT22;6592;47.484;9.726;2023-04-24T02:37:11;9.40;99.90
13052;DHT22;6592;47.484;9.726;2023-04-24T02:39:39;9.40;99.90
13052;DHT22;6592;47.484;9.726;2023-04-24T02:42:07;9.40;99.90
13052;DHT22;6592;47.484;9.726;2023-04-24T02:44:35;9.40;99.90
13052;DHT22;6592;47.484;9.726;2023-04-24T02:47:04;9.40;99.90
13052;DHT22;6592;47.484;9.726;2023-04-24T02:49:33;9.40;99.90
13052;DHT22;6592;47.484;9.726;2023-04-24T02:52:02;9.40;99.90
13052;DHT22;6592;47.484;9.726;2023-04-24T02:54:30;9.40;99.90
13052;DHT22;6592;47.484;9.726;2023-04-24T02:56:58;9.40;99.90
13052;DHT22;6592;47.484;9.726;2023-04-24T02:59:28;9.40;99.90
13052;DHT22;6592;47.484;9.726;2023-04-24T03:01:56;9.30;99.90
13052;DHT22;6592;47.484;9.726;2023-04-24T03:04:24;9.30;99.90
13052;DHT22;6592;47.484;9.726;2023-04-24T03:06:54;9.20;99.90
13052;DHT22;6592;47.484;9.726;2023-04-24T03:09:23;9.10;99.90
13052;DHT22;6592;47.484;9.726;2023-04-24T03:11:51;9.10;99.90
13052;DHT22;6592;47.484;9.726;2023-04-24T03:14:19;9.10;99.90
13052;DHT22;6592;47.484;9.726;2023-04-24T03:16:47;9.00;99.90
13052;DHT22;6592;47.484;9.726;2023-04-24T03:19:16;9.00;99.90
13052;DHT22;6592;47.484;9.726;2023-04-24T03:21:45;9.00;99.90
13052;DHT22;6592;47.484;9.726;2023-04-24T03:24:14;9.00;99.90
13052;DHT22;6592;47.484;9.726;2023-04-24T03:26:42;8.90;99.90
13052;DHT22;6592;47.484;9.726;2023-04-24T03:29:11;8.90;99.90
13052;DHT22;6592;47.484;9.726;2023-04-24T03:31:39;9.00;99.90
13052;DHT22;6592;47.484;9.726;2023-04-24T03:34:07;9.00;99.90
13052;DHT22;6592;47.484;9.726;2023-04-24T03:36:36;9.00;99.90
13052;DHT22;6592;47.484;9.726;2023-04-24T03:39:04;9.00;99.90
13052;DHT22;6592;47.484;9.726;2023-04-24T03:41:34;9.00;99.90
13052;DHT22;6592;47.484;9.726;2023-04-24T03:44:02;9.10;99.90
13052;DHT22;6592;47.484;9.726;2023-04-24T03:46:30;9.10;99.90
13052;DHT22;6592;47.484;9.726;2023-04-24T03:48:58;9.10;99.90
13052;DHT22;6592;47.484;9.726;2023-04-24T03:51:26;9.20;99.90
13052;DHT22;6592;47.484;9.726;2023-04-24T03:53:57;9.20;99.90
13052;DHT22;6592;47.484;9.726;2023-04-24T03:56:25;9.20;99.90
13052;DHT22;6592;47.484;9.726;2023-04-24T03:58:55;9.20;99.90
13052;DHT22;6592;47.484;9.726;2023-04-24T04:01:23;9.20;99.90
13052;DHT22;6592;47.484;9.726;2023-04-24T04:03:51;9.20;99.90
13052;DHT22;6592;47.484;9.726;2023-04-24T04:06:20;9.20;99.90
13052;DHT22;6592;47.484;9.726;2023-04-24T04:08:48;9.20;99.90
13052;DHT22;6592;47.484;9.726;2023-04-24T04:11:16;9.20;99.90
13052;DHT22;6592;47.484;9.726;2023-04-24T04:13:44;9.20;99.90
13052;DHT22;6592;47.484;9.726;2023-04-24T04:16:16;9.30;99.90
13052;DHT22;6592;47.484;9.726;2023-04-24T04:18:44;9.30;99.90
13052;DHT22;6592;47.484;9.726;2023-04-24T04:21:13;9.30;99.90
13052;DHT22;6592;47.484;9.726;2023-04-24T04:23:41;9.40;99.90
13052;DHT22;6592;47.484;9.726;2023-04-24T04:26:10;9.40;99.90
13052;DHT22;6592;47.484;9.726;2023-04-24T04:28:39;9.40;99.90
13052;DHT22;6592;47.484;9.726;2023-04-24T04:31:07;9.40;99.90
13052;DHT22;6592;47.484;9.726;2023-04-24T04:33:37;9.40;99.90
13052;DHT22;6592;47.484;9.726;2023-04-24T04:36:06;9.40;99.90
13052;DHT22;6592;47.484;9.726;2023-04-24T04:38:35;9.40;99.90
13052;DHT22;6592;47.484;9.726;2023-04-24T04:41:04;9.40;99.90
13052;DHT22;6592;47.484;9.726;2023-04-24T04:43:32;9.40;99.90
13052;DHT22;6592;47.484;9.726;2023-04-24T04:46:01;9.40;99.90
13052;DHT22;6592;47.484;9.726;2023-04-24T04:48:30;9.40;99.90
13052;DHT22;6592;47.484;9.726;2023-04-24T04:50:59;9.40;99.90
13052;DHT22;6592;47.484;9.726;2023-04-24T04:53:28;9.40;99.90
13052;DHT22;6592;47.484;9.726;2023-04-24T04:55:56;9.30;99.90
13052;DHT22;6592;47.484;9.726;2023-04-24T04:58:24;9.30;99.90
13052;DHT22;6592;47.484;9.726;2023-04-24T05:00:52;9.30;99.90
13052;DHT22;6592;47.484;9.726;2023-04-24T05:03:21;9.30;99.90
13052;DHT22;6592;47.484;9.726;2023-04-24T05:05:49;9.40;99.90
13052;DHT22;6592;47.484;9.726;2023-04-24T05:08:19;9.40;99.90
13052;DHT22;6592;47.484;9.726;2023-04-24T05:10:53;9.40;99.90
13052;DHT22;6592;47.484;9.726;2023-04-24T05:13:22;9.40;99.90
13052;DHT22;6592;47.484;9.726;2023-04-24T05:16:05;9.40;99.90
13052;DHT22;6592;47.484;9.726;2023-04-24T05:18:34;9.40;99.90
13052;DHT22;6592;47.484;9.726;2023-04-24T05:21:02;9.40;99.90
13052;DHT22;6592;47.484;9.726;2023-04-24T05:23:32;9.40;99.90
13052;DHT22;6592;47.484;9.726;2023-04-24T05:26:00;9.40;99.90
13052;DHT22;6592;47.484;9.726;2023-04-24T05:28:31;9.40;99.90
13052;DHT22;6592;47.484;9.726;2023-04-24T05:31:00;9.50;99.90
13052;DHT22;6592;47.484;9.726;2023-04-24T05:33:29;9.50;99.90
13052;DHT22;6592;47.484;9.726;2023-04-24T05:35:57;9.50;99.90
13052;DHT22;6592;47.484;9.726;2023-04-24T05:38:25;9.60;99.90
13052;DHT22;6592;47.484;9.726;2023-04-24T05:40:55;9.60;99.90
13052;DHT22;6592;47.484;9.726;2023-04-24T05:43:23;9.60;99.90
13052;DHT22;6592;47.484;9.726;2023-04-24T05:45:52;9.60;99.90
13052;DHT22;6592;47.484;9.726;2023-04-24T05:48:20;9.60;99.90
13052;DHT22;6592;47.484;9.726;2023-04-24T05:50:49;9.60;99.90
13052;DHT22;6592;47.484;9.726;2023-04-24T05:53:17;9.60;99.90
13052;DHT22;6592;47.484;9.726;2023-04-24T05:55:45;9.60;99.90
13052;DHT22;6592;47.484;9.726;2023-04-24T05:58:15;9.50;99.90
13052;DHT22;6592;47.484;9.726;2023-04-24T06:00:43;9.50;99.90
13052;DHT22;6592;47.484;9.726;2023-04-24T06:03:13;9.50;99.90
13052;DHT22;6592;47.484;9.726;2023-04-24T06:05:42;9.50;99.90
13052;DHT22;6592;47.484;9.726;2023-04-24T06:08:11;9.60;99.90
13052;DHT22;6592;47.484;9.726;2023-04-24T06:10:39;9.60;99.90
13052;DHT22;6592;47.484;9.726;2023-04-24T06:13:08;9.70;99.90
13052;DHT22;6592;47.484;9.726;2023-04-24T06:15:38;9.70;99.90
13052;DHT22;6592;47.484;9.726;2023-04-24T06:18:06;9.80;99.90
13052;DHT22;6592;47.484;9.726;2023-04-24T06:20:36;9.80;99.90
13052;DHT22;6592;47.484;9.726;2023-04-24T06:23:05;9.80;99.90
13052;DHT22;6592;47.484;9.726;2023-04-24T06:25:33;9.80;99.90
13052;DHT22;6592;47.484;9.726;2023-04-24T06:28:01;9.80;99.90
13052;DHT22;6592;47.484;9.726;2023-04-24T06:30:29;9.80;99.90
13052;DHT22;6592;47.484;9.726;2023-04-24T06:32:59;9.80;99.90
13052;DHT22;6592;47.484;9.726;2023-04-24T06:35:45;9.80;99.90
13052;DHT22;6592;47.484;9.726;2023-04-24T06:38:13;9.90;99.90
13052;DHT22;6592;47.484;9.726;2023-04-24T06:40:43;9.90;99.90
13052;DHT22;6592;47.484;9.726;2023-04-24T06:43:11;10.00;99.90
13052;DHT22;6592;47.484;9.726;2023-04-24T06:45:39;10.00;99.90
13052;DHT22;6592;47.484;9.726;2023-04-24T06:48:09;10.00;99.90
13052;DHT22;6592;47.484;9.726;2023-04-24T06:50:38;10.00;99.90
13052;DHT22;6592;47.484;9.726;2023-04-24T06:53:06;9.90;99.90
13052;DHT22;6592;47.484;9.726;2023-04-24T06:55:35;9.90;99.90
13052;DHT22;6592;47.484;9.726;2023-04-24T06:58:04;9.80;99.90
13052;DHT22;6592;47.484;9.726;2023-04-24T07:00:32;9.90;99.90
13052;DHT22;6592;47.484;9.726;2023-04-24T07:03:01;9.80;99.90
13052;DHT22;6592;47.484;9.726;2023-04-24T07:05:31;9.90;99.90
13052;DHT22;6592;47.484;9.726;2023-04-24T07:08:01;9.90;99.90
13052;DHT22;6592;47.484;9.726;2023-04-24T07:10:29;10.00;99.90
13052;DHT22;6592;47.484;9.726;2023-04-24T07:12:57;10.00;99.90
13052;DHT22;6592;47.484;9.726;2023-04-24T07:15:25;10.00;99.90
13052;DHT22;6592;47.484;9.726;2023-04-24T07:17:54;10.00;99.90
13052;DHT22;6592;47.484;9.726;2023-04-24T07:20:22;10.00;99.90
13052;DHT22;6592;47.484;9.726;2023-04-24T07:22:52;9.90;99.90
13052;DHT22;6592;47.484;9.726;2023-04-24T07:25:20;10.00;99.90
13052;DHT22;6592;47.484;9.726;2023-04-24T07:27:49;10.10;99.90
13052;DHT22;6592;47.484;9.726;2023-04-24T07:30:17;10.30;99.90
13052;DHT22;6592;47.484;9.726;2023-04-24T07:32:45;10.40;99.90
13052;DHT22;6592;47.484;9.726;2023-04-24T07:35:13;10.40;99.90
13052;DHT22;6592;47.484;9.726;2023-04-24T07:37:41;10.50;99.90
13052;DHT22;6592;47.484;9.726;2023-04-24T07:40:14;10.50;99.90
13052;DHT22;6592;47.484;9.726;2023-04-24T07:42:42;10.60;99.90
13052;DHT22;6592;47.484;9.726;2023-04-24T07:45:10;10.60;99.90
13052;DHT22;6592;47.484;9.726;2023-04-24T07:47:39;10.50;99.90
13052;DHT22;6592;47.484;9.726;2023-04-24T07:50:07;10.50;99.90
13052;DHT22;6592;47.484;9.726;2023-04-24T07:52:36;10.50;99.90
13052;DHT22;6592;47.484;9.726;2023-04-24T07:55:04;10.50;99.90
13052;DHT22;6592;47.484;9.726;2023-04-24T07:57:35;10.50;99.90
13052;DHT22;6592;47.484;9.726;2023-04-24T08:00:05;10.50;99.90
13052;DHT22;6592;47.484;9.726;2023-04-24T08:02:33;10.50;99.90
13052;DHT22;6592;47.484;9.726;2023-04-24T08:05:02;10.60;99.90
13052;DHT22;6592;47.484;9.726;2023-04-24T08:07:31;10.70;99.90
13052;DHT22;6592;47.484;9.726;2023-04-24T08:09:59;10.80;99.90
13052;DHT22;6592;47.484;9.726;2023-04-24T08:12:28;10.90;99.90
13052;DHT22;6592;47.484;9.726;2023-04-24T08:14:58;11.00;99.90
13052;DHT22;6592;47.484;9.726;2023-04-24T08:17:26;11.20;99.90
13052;DHT22;6592;47.484;9.726;2023-04-24T08:19:54;11.30;99.90
13052;DHT22;6592;47.484;9.726;2023-04-24T08:22:28;12.00;99.90
13052;DHT22;6592;47.484;9.726;2023-04-24T08:24:57;13.50;99.90
13052;DHT22;6592;47.484;9.726;2023-04-24T08:27:26;14.40;99.90
13052;DHT22;6592;47.484;9.726;2023-04-24T08:29:54;14.60;99.90
13052;DHT22;6592;47.484;9.726;2023-04-24T08:32:24;14.40;99.90
13052;DHT22;6592;47.484;9.726;2023-04-24T08:34:54;14.40;99.90
13052;DHT22;6592;47.484;9.726;2023-04-24T08:37:23;14.40;99.90
13052;DHT22;6592;47.484;9.726;2023-04-24T08:39:52;14.30;99.90
13052;DHT22;6592;47.484;9.726;2023-04-24T08:42:20;14.30;99.90
13052;DHT22;6592;47.484;9.726;2023-04-24T08:44:49;13.90;99.90
13052;DHT22;6592;47.484;9.726;2023-04-24T08:47:18;13.40;99.90
13052;DHT22;6592;47.484;9.726;2023-04-24T08:49:49;12.90;99.90
13052;DHT22;6592;47.484;9.726;2023-04-24T08:52:18;12.60;99.90
13052;DHT22;6592;47.484;9.726;2023-04-24T08:54:47;12.30;99.90
13052;DHT22;6592;47.484;9.726;2023-04-24T08:57:17;12.00;99.90
13052;DHT22;6592;47.484;9.726;2023-04-24T08:59:45;11.90;99.90
13052;DHT22;6592;47.484;9.726;2023-04-24T09:02:15;11.80;99.90
13052;DHT22;6592;47.484;9.726;2023-04-24T09:04:44;11.80;99.90
13052;DHT22;6592;47.484;9.726;2023-04-24T09:07:16;11.80;99.90
13052;DHT22;6592;47.484;9.726;2023-04-24T09:09:46;11.80;99.90
13052;DHT22;6592;47.484;9.726;2023-04-24T09:12:14;11.70;99.90
13052;DHT22;6592;47.484;9.726;2023-04-24T09:14:42;11.80;99.90
13052;DHT22;6592;47.484;9.726;2023-04-24T09:17:12;11.80;99.90
13052;DHT22;6592;47.484;9.726;2023-04-24T09:19:40;11.80;99.90
13052;DHT22;6592;47.484;9.726;2023-04-24T09:22:09;11.50;99.90
13052;DHT22;6592;47.484;9.726;2023-04-24T09:24:39;11.00;99.90
13052;DHT22;6592;47.484;9.726;2023-04-24T09:27:08;10.40;99.90
13052;DHT22;6592;47.484;9.726;2023-04-24T09:29:39;10.10;99.90
13052;DHT22;6592;47.484;9.726;2023-04-24T09:32:18;10.00;99.90
13052;DHT22;6592;47.484;9.726;2023-04-24T09:34:48;10.00;99.90
13052;DHT22;6592;47.484;9.726;2023-04-24T09:37:28;10.10;99.90
13052;DHT22;6592;47.484;9.726;2023-04-24T09:40:12;10.30;99.90
13052;DHT22;6592;47.484;9.726;2023-04-24T09:42:43;10.40;99.90
13052;DHT22;6592;47.484;9.726;2023-04-24T09:45:12;10.50;99.90
13052;DHT22;6592;47.484;9.726;2023-04-24T09:47:41;10.40;99.90
13052;DHT22;6592;47.484;9.726;2023-04-24T09:50:14;10.40;99.90
13052;DHT22;6592;47.484;9.726;2023-04-24T09:52:46;10.50;99.90
13052;DHT22;6592;47.484;9.726;2023-04-24T09:55:19;10.40;99.90
13052;DHT22;6592;47.484;9.726;2023-04-24T09:57:49;10.30;99.90
13052;DHT22;6592;47.484;9.726;2023-04-24T10:00:21;10.20;99.90
13052;DHT22;6592;47.484;9.726;2023-04-24T10:02:50;10.10;99.90
13052;DHT22;6592;47.484;9.726;2023-04-24T10:05:23;10.00;99.90
13052;DHT22;6592;47.484;9.726;2023-04-24T10:07:52;10.00;99.90
13052;DHT22;6592;47.484;9.726;2023-04-24T10:10:25;10.10;99.90
13052;DHT22;6592;47.484;9.726;2023-04-24T10:12:55;10.20;99.90
13052;DHT22;6592;47.484;9.726;2023-04-24T10:15:24;10.40;99.90
13052;DHT22;6592;47.484;9.726;2023-04-24T10:17:53;10.50;99.90
13052;DHT22;6592;47.484;9.726;2023-04-24T10:20:23;10.60;99.90
13052;DHT22;6592;47.484;9.726;2023-04-24T10:22:53;10.80;99.90
13052;DHT22;6592;47.484;9.726;2023-04-24T10:25:23;11.00;99.90
13052;DHT22;6592;47.484;9.726;2023-04-24T10:27:54;11.20;99.90
13052;DHT22;6592;47.484;9.726;2023-04-24T10:30:24;11.40;99.90
13052;DHT22;6592;47.484;9.726;2023-04-24T10:32:53;11.60;99.90
13052;DHT22;6592;47.484;9.726;2023-04-24T10:35:21;11.80;99.90
13052;DHT22;6592;47.484;9.726;2023-04-24T10:37:56;12.20;99.90
13052;DHT22;6592;47.484;9.726;2023-04-24T10:40:25;12.40;99.90
13052;DHT22;6592;47.484;9.726;2023-04-24T10:42:56;12.50;99.90
13052;DHT22;6592;47.484;9.726;2023-04-24T10:45:25;12.60;99.90
13052;DHT22;6592;47.484;9.726;2023-04-24T10:47:56;12.70;99.90
13052;DHT22;6592;47.484;9.726;2023-04-24T10:50:26;12.60;99.90
13052;DHT22;6592;47.484;9.726;2023-04-24T10:53:06;12.60;99.90
13052;DHT22;6592;47.484;9.726;2023-04-24T10:55:46;12.50;99.90
13052;DHT22;6592;47.484;9.726;2023-04-24T10:58:16;12.40;99.90
13052;DHT22;6592;47.484;9.726;2023-04-24T11:00:55;12.40;99.90
13052;DHT22;6592;47.484;9.726;2023-04-24T11:03:26;12.30;99.90
13052;DHT22;6592;47.484;9.726;2023-04-24T11:06:00;12.30;99.90
13052;DHT22;6592;47.484;9.726;2023-04-24T11:08:31;12.20;99.90
13052;DHT22;6592;47.484;9.726;2023-04-24T11:11:01;12.10;99.90
13052;DHT22;6592;47.484;9.726;2023-04-24T11:14:06;12.20;99.90
13052;DHT22;6592;47.484;9.726;2023-04-24T11:16:38;12.20;99.90
13052;DHT22;6592;47.484;9.726;2023-04-24T11:19:08;12.30;99.90
13052;DHT22;6592;47.484;9.726;2023-04-24T11:21:42;12.40;99.90
13052;DHT22;6592;47.484;9.726;2023-04-24T11:24:24;12.80;99.90
13052;DHT22;6592;47.484;9.726;2023-04-24T11:26:54;13.70;99.90
13052;DHT22;6592;47.484;9.726;2023-04-24T11:29:38;14.40;99.90
13052;DHT22;6592;47.484;9.726;2023-04-24T11:32:25;15.10;99.90
13052;DHT22;6592;47.484;9.726;2023-04-24T11:34:56;15.50;99.90
13052;DHT22;6592;47.484;9.726;2023-04-24T11:37:27;15.50;99.90
13052;DHT22;6592;47.484;9.726;2023-04-24T11:39:58;15.40;99.90
13052;DHT22;6592;47.484;9.726;2023-04-24T11:42:28;15.20;99.90
13052;DHT22;6592;47.484;9.726;2023-04-24T11:44:58;15.10;99.90
13052;DHT22;6592;47.484;9.726;2023-04-24T11:47:30;14.50;99.90
13052;DHT22;6592;47.484;9.726;2023-04-24T11:50:01;14.40;99.90
13052;DHT22;6592;47.484;9.726;2023-04-24T11:52:31;14.30;99.90
13052;DHT22;6592;47.484;9.726;2023-04-24T11:54:59;14.20;99.90
13052;DHT22;6592;47.484;9.726;2023-04-24T11:57:28;14.10;99.90
13052;DHT22;6592;47.484;9.726;2023-04-24T12:00:02;14.30;99.90
13052;DHT22;6592;47.484;9.726;2023-04-24T12:02:32;14.50;99.90
13052;DHT22;6592;47.484;9.726;2023-04-24T12:05:05;14.60;99.90
13052;DHT22;6592;47.484;9.726;2023-04-24T12:07:40;14.60;99.90
13052;DHT22;6592;47.484;9.726;2023-04-24T12:10:10;14.50;99.90
13052;DHT22;6592;47.484;9.726;2023-04-24T12:12:38;14.40;99.90
13052;DHT22;6592;47.484;9.726;2023-04-24T12:15:09;14.30;99.90
13052;DHT22;6592;47.484;9.726;2023-04-24T12:17:41;14.30;99.90
13052;DHT22;6592;47.484;9.726;2023-04-24T12:20:11;14.50;99.90
13052;DHT22;6592;47.484;9.726;2023-04-24T12:22:46;14.70;99.90
13052;DHT22;6592;47.484;9.726;2023-04-24T12:25:15;14.90;99.90
13052;DHT22;6592;47.484;9.726;2023-04-24T12:27:44;15.30;99.90
13052;DHT22;6592;47.484;9.726;2023-04-24T12:30:15;15.90;99.90
13052;DHT22;6592;47.484;9.726;2023-04-24T12:32:44;16.70;99.90
13052;DHT22;6592;47.484;9.726;2023-04-24T12:35:13;17.40;99.90
13052;DHT22;6592;47.484;9.726;2023-04-24T12:37:43;18.00;99.90
13052;DHT22;6592;47.484;9.726;2023-04-24T12:40:14;18.20;99.90
13052;DHT22;6592;47.484;9.726;2023-04-24T12:42:44;18.10;99.90
13052;DHT22;6592;47.484;9.726;2023-04-24T12:45:15;17.70;99.90
13052;DHT22;6592;47.484;9.726;2023-04-24T12:47:45;17.40;99.90
13052;DHT22;6592;47.484;9.726;2023-04-24T12:50:14;16.90;99.90
13052;DHT22;6592;47.484;9.726;2023-04-24T12:52:44;16.50;99.90
13052;DHT22;6592;47.484;9.726;2023-04-24T12:55:13;16.00;99.90
13052;DHT22;6592;47.484;9.726;2023-04-24T12:57:41;15.70;99.90
13052;DHT22;6592;47.484;9.726;2023-04-24T13:00:10;15.60;99.90
13052;DHT22;6592;47.484;9.726;2023-04-24T13:02:39;15.40;99.90
13052;DHT22;6592;47.484;9.726;2023-04-24T13:05:09;15.40;99.90
13052;DHT22;6592;47.484;9.726;2023-04-24T13:07:38;15.20;99.90
13052;DHT22;6592;47.484;9.726;2023-04-24T13:10:07;14.90;99.90
13052;DHT22;6592;47.484;9.726;2023-04-24T13:12:36;14.70;99.90
13052;DHT22;6592;47.484;9.726;2023-04-24T13:15:07;14.60;99.90
13052;DHT22;6592;47.484;9.726;2023-04-24T13:17:35;14.50;99.90
13052;DHT22;6592;47.484;9.726;2023-04-24T13:20:06;14.30;99.90
13052;DHT22;6592;47.484;9.726;2023-04-24T13:22:34;14.30;99.90
13052;DHT22;6592;47.484;9.726;2023-04-24T13:25:04;14.30;99.90
13052;DHT22;6592;47.484;9.726;2023-04-24T13:27:34;14.70;99.90
13052;DHT22;6592;47.484;9.726;2023-04-24T13:30:02;15.60;99.90
13052;DHT22;6592;47.484;9.726;2023-04-24T13:32:32;16.50;99.90
13052;DHT22;6592;47.484;9.726;2023-04-24T13:35:02;16.80;99.90
13052;DHT22;6592;47.484;9.726;2023-04-24T13:37:32;16.90;99.90
13052;DHT22;6592;47.484;9.726;2023-04-24T13:40:00;16.60;99.90
13052;DHT22;6592;47.484;9.726;2023-04-24T13:42:28;16.20;99.90
13052;DHT22;6592;47.484;9.726;2023-04-24T13:44:56;15.30;99.90
13052;DHT22;6592;47.484;9.726;2023-04-24T13:47:25;14.70;99.90
13052;DHT22;6592;47.484;9.726;2023-04-24T13:49:53;14.30;99.90
13052;DHT22;6592;47.484;9.726;2023-04-24T13:52:22;14.20;99.90
13052;DHT22;6592;47.484;9.726;2023-04-24T13:54:51;14.00;99.90
13052;DHT22;6592;47.484;9.726;2023-04-24T13:57:20;13.80;99.90
13052;DHT22;6592;47.484;9.726;2023-04-24T13:59:48;13.70;99.90
13052;DHT22;6592;47.484;9.726;2023-04-24T14:02:17;13.60;99.90
13052;DHT22;6592;47.484;9.726;2023-04-24T14:04:45;13.40;99.90
13052;DHT22;6592;47.484;9.726;2023-04-24T14:07:15;13.20;99.90
13052;DHT22;6592;47.484;9.726;2023-04-24T14:09:43;13.00;99.90
13052;DHT22;6592;47.484;9.726;2023-04-24T14:12:12;13.00;99.90
13052;DHT22;6592;47.484;9.726;2023-04-24T14:14:43;12.90;99.90
13052;DHT22;6592;47.484;9.726;2023-04-24T14:17:11;12.70;99.90
13052;DHT22;6592;47.484;9.726;2023-04-24T14:19:39;12.60;99.90
13052;DHT22;6592;47.484;9.726;2023-04-24T14:22:08;12.60;99.90
13052;DHT22;6592;47.484;9.726;2023-04-24T14:24:36;12.60;99.90
13052;DHT22;6592;47.484;9.726;2023-04-24T14:27:04;12.60;99.90
13052;DHT22;6592;47.484;9.726;2023-04-24T14:29:33;12.70;99.90
13052;DHT22;6592;47.484;9.726;2023-04-24T14:32:02;12.70;99.90
13052;DHT22;6592;47.484;9.726;2023-04-24T14:34:30;12.50;99.90
13052;DHT22;6592;47.484;9.726;2023-04-24T14:36:58;12.50;99.90
13052;DHT22;6592;47.484;9.726;2023-04-24T14:39:26;12.50;99.90
13052;DHT22;6592;47.484;9.726;2023-04-24T14:41:55;12.80;99.90
13052;DHT22;6592;47.484;9.726;2023-04-24T14:44:23;13.10;99.90
13052;DHT22;6592;47.484;9.726;2023-04-24T14:46:53;13.30;99.90
13052;DHT22;6592;47.484;9.726;2023-04-24T14:49:21;13.60;99.90
13052;DHT22;6592;47.484;9.726;2023-04-24T14:51:49;13.70;99.90
13052;DHT22;6592;47.484;9.726;2023-04-24T14:54:18;13.90;99.90
13052;DHT22;6592;47.484;9.726;2023-04-24T14:56:46;13.90;99.90
13052;DHT22;6592;47.484;9.726;2023-04-24T14:59:14;13.80;99.90
13052;DHT22;6592;47.484;9.726;2023-04-24T15:01:43;13.90;99.90
13052;DHT22;6592;47.484;9.726;2023-04-24T15:04:12;13.90;99.90
13052;DHT22;6592;47.484;9.726;2023-04-24T15:06:41;14.00;99.90
13052;DHT22;6592;47.484;9.726;2023-04-24T15:09:09;14.10;99.90
13052;DHT22;6592;47.484;9.726;2023-04-24T15:11:37;14.30;99.90
13052;DHT22;6592;47.484;9.726;2023-04-24T15:14:05;14.30;99.90
13052;DHT22;6592;47.484;9.726;2023-04-24T15:16:34;14.20;99.90
13052;DHT22;6592;47.484;9.726;2023-04-24T15:19:03;14.20;99.90
13052;DHT22;6592;47.484;9.726;2023-04-24T15:21:32;14.10;99.90
13052;DHT22;6592;47.484;9.726;2023-04-24T15:24:01;14.10;99.90
13052;DHT22;6592;47.484;9.726;2023-04-24T15:26:29;14.10;99.90
13052;DHT22;6592;47.484;9.726;2023-04-24T15:28:57;13.90;99.90
13052;DHT22;6592;47.484;9.726;2023-04-24T15:31:25;13.90;99.90
13052;DHT22;6592;47.484;9.726;2023-04-24T15:33:54;13.90;99.90
13052;DHT22;6592;47.484;9.726;2023-04-24T15:36:22;13.80;99.90
13052;DHT22;6592;47.484;9.726;2023-04-24T15:38:52;13.80;99.90
13052;DHT22;6592;47.484;9.726;2023-04-24T15:41:20;13.70;99.90
13052;DHT22;6592;47.484;9.726;2023-04-24T15:43:48;13.60;99.90
13052;DHT22;6592;47.484;9.726;2023-04-24T15:46:16;13.50;99.90
13052;DHT22;6592;47.484;9.726;2023-04-24T15:48:44;13.40;99.90
13052;DHT22;6592;47.484;9.726;2023-04-24T15:51:13;13.40;99.90
13052;DHT22;6592;47.484;9.726;2023-04-24T15:53:41;13.30;99.90
13052;DHT22;6592;47.484;9.726;2023-04-24T15:56:10;13.30;99.90
13052;DHT22;6592;47.484;9.726;2023-04-24T15:58:39;13.20;99.90
13052;DHT22;6592;47.484;9.726;2023-04-24T16:01:07;13.00;99.90
13052;DHT22;6592;47.484;9.726;2023-04-24T16:03:35;12.90;99.90
13052;DHT22;6592;47.484;9.726;2023-04-24T16:06:04;12.80;99.90